Time;durP1;ratioP1;P1;durP2;ratioP2;P2;SDS_P1;SDS_P2;PMS_P1;PMS_P2;Temp;Humidity;BMP_temperature;BMP_pressure;BME280_temperature;BME280_humidity;BME280_pressure;Samples;Min_cycle;Max_cycle;Signal;HPM_P1;HPM_P2
2022/04/04 00:01:10;;;;;;;11.57;3.93;;;;;;;2.75;100.00;100773.72;5025472;28;20029;-74
2022/04/04 00:03:35;;;;;;;9.80;4.17;;;;;;;2.79;100.00;100774.34;5026688;28;20063;-74
2022/04/04 00:06:00;;;;;;;5.80;3.27;;;;;;;2.76;100.00;100759.56;5017007;28;20021;-74
2022/04/04 00:08:27;;;;;;;10.23;4.00;;;;;;;2.83;100.00;100759.97;5026824;28;20035;-74
2022/04/04 00:10:53;;;;;;;7.75;4.47;;;;;;;2.88;100.00;100752.56;5026528;28;20112;-74
2022/04/04 00:13:18;;;;;;;12.25;5.25;;;;;;;2.82;100.00;100745.94;5025570;28;20108;-74
2022/04/04 00:15:44;;;;;;;12.30;5.40;;;;;;;2.81;100.00;100752.19;5008643;28;20073;-74
2022/04/04 00:18:11;;;;;;;15.67;6.73;;;;;;;2.81;100.00;100735.50;5025266;28;20021;-74
2022/04/04 00:20:40;;;;;;;12.80;4.75;;;;;;;2.78;100.00;100731.31;5026299;28;20030;-74
2022/04/04 00:23:12;;;;;;;9.20;4.65;;;;;;;2.76;100.00;100725.28;5008919;28;20025;-74
2022/04/04 00:25:41;;;;;;;9.45;4.53;;;;;;;2.84;100.00;100716.84;5026130;28;20114;-74
2022/04/04 00:28:06;;;;;;;11.18;4.40;;;;;;;2.84;100.00;100719.47;5027336;28;20805;-74
2022/04/04 00:30:32;;;;;;;14.38;5.00;;;;;;;2.85;100.00;100713.22;5024947;28;20041;-74
2022/04/04 00:32:58;;;;;;;13.32;6.43;;;;;;;2.86;100.00;100704.38;5025229;28;20022;-73
2022/04/04 00:35:23;;;;;;;25.47;5.17;;;;;;;2.80;100.00;100694.28;5026186;28;20040;-73
2022/04/04 00:37:48;;;;;;;11.83;4.80;;;;;;;2.83;100.00;100691.41;5016869;28;20269;-74
2022/04/04 00:40:14;;;;;;;15.13;5.07;;;;;;;2.72;100.00;100685.16;5026163;28;20035;-74
2022/04/04 00:42:40;;;;;;;9.67;4.83;;;;;;;2.71;100.00;100685.25;5008391;28;20482;-74
2022/04/04 00:45:06;;;;;;;11.07;4.80;;;;;;;2.73;100.00;100688.63;5024837;28;20043;-74
2022/04/04 00:47:32;;;;;;;16.50;6.45;;;;;;;2.74;100.00;100688.50;5026199;28;20410;-74
2022/04/04 00:49:57;;;;;;;14.60;5.35;;;;;;;2.69;100.00;100679.25;5008134;28;20044;-74
2022/04/04 00:52:23;;;;;;;16.30;5.73;;;;;;;2.71;100.00;100665.00;5026054;28;20021;-73
2022/04/04 00:54:49;;;;;;;16.65;5.60;;;;;;;2.73;100.00;100656.97;5016405;28;20624;-74
2022/04/04 00:57:16;;;;;;;11.53;5.50;;;;;;;2.73;100.00;100660.44;5026014;28;20053;-74
2022/04/04 00:59:42;;;;;;;11.65;5.35;;;;;;;2.80;100.00;100650.28;5007900;28;20040;-74
2022/04/04 01:02:07;;;;;;;9.43;4.70;;;;;;;2.85;100.00;100657.88;5016462;28;20033;-74
2022/04/04 01:04:33;;;;;;;14.30;4.60;;;;;;;2.73;100.00;100644.63;5025779;28;20124;-74
2022/04/04 01:06:59;;;;;;;11.90;5.13;;;;;;;2.65;100.00;100635.63;5025759;28;20021;-74
2022/04/04 01:09:25;;;;;;;8.95;4.07;;;;;;;2.67;100.00;100626.66;5008047;28;20048;-74
2022/04/04 01:12:10;;;;;;;11.27;5.20;;;;;;;2.74;100.00;100635.78;5024441;28;20057;-74
2022/04/04 01:14:38;;;;;;;12.20;5.35;;;;;;;2.78;100.00;100632.91;5007956;28;20040;-74
2022/04/04 01:17:05;;;;;;;12.80;6.03;;;;;;;2.76;100.00;100619.84;5017918;28;20049;-74
2022/04/04 01:19:30;;;;;;;13.63;4.20;;;;;;;2.76;100.00;100614.56;5025521;28;20045;-73
2022/04/04 01:21:56;;;;;;;9.87;4.67;;;;;;;2.69;100.00;100590.47;5025503;28;20025;-74
2022/04/04 01:24:22;;;;;;;10.20;4.10;;;;;;;2.68;100.00;100594.06;5024340;28;20307;-74
2022/04/04 01:26:48;;;;;;;8.63;4.05;;;;;;;2.69;100.00;100595.75;5025202;28;20402;-74
2022/04/04 01:29:14;;;;;;;8.98;4.20;;;;;;;2.68;100.00;100588.78;5025491;28;20092;-74
2022/04/04 01:31:39;;;;;;;15.10;4.57;;;;;;;2.61;100.00;100584.09;5025583;28;20037;-74
2022/04/04 01:34:05;;;;;;;10.03;4.20;;;;;;;2.63;100.00;100583.03;5024359;28;20494;-74
2022/04/04 01:36:31;;;;;;;10.23;4.22;;;;;;;2.56;100.00;100576.53;5025199;28;20733;-74
2022/04/04 01:38:57;;;;;;;9.18;3.78;;;;;;;2.54;100.00;100563.47;5007940;28;20032;-74
2022/04/04 01:41:22;;;;;;;10.33;3.33;;;;;;;2.58;100.00;100564.09;5027021;28;20025;-73
2022/04/04 01:43:47;;;;;;;6.57;3.23;;;;;;;2.56;100.00;100554.63;5028871;28;20303;-74
2022/04/04 01:46:25;;;;;;;10.10;3.70;;;;;;;2.49;100.00;100552.44;5027953;28;20124;-74
2022/04/04 01:48:52;;;;;;;8.52;3.42;;;;;;;2.52;100.00;100540.81;5028066;28;20037;-74
2022/04/04 01:51:18;;;;;;;4.70;2.58;;;;;;;2.47;100.00;100541.16;5026303;28;20041;-74
2022/04/04 01:53:43;;;;;;;7.45;2.95;;;;;;;2.47;100.00;100543.78;5028621;28;20033;-74
2022/04/04 01:56:09;;;;;;;9.15;3.30;;;;;;;2.42;100.00;100532.75;5027786;28;20037;-76
2022/04/04 01:58:35;;;;;;;6.15;3.90;;;;;;;2.43;100.00;100520.41;5027850;28;20124;-74
2022/04/04 02:01:02;;;;;;;6.63;2.50;;;;;;;2.41;100.00;100522.31;5011125;28;20029;-74
2022/04/04 02:03:29;;;;;;;8.45;2.92;;;;;;;2.42;100.00;100511.69;5019369;28;20288;-74
2022/04/04 02:05:55;;;;;;;5.00;2.65;;;;;;;2.38;100.00;100506.75;5018972;28;20033;-74
2022/04/04 02:08:20;;;;;;;8.55;3.30;;;;;;;2.36;100.00;100501.59;5028780;28;20044;-74
2022/04/04 02:10:46;;;;;;;13.75;3.35;;;;;;;2.44;100.00;100501.03;5028589;28;20029;-74
2022/04/04 02:13:12;;;;;;;6.65;2.97;;;;;;;2.37;100.00;100494.56;5019001;28;20045;-74
2022/04/04 02:15:38;;;;;;;8.07;3.25;;;;;;;2.34;100.00;100490.31;5028292;28;20036;-74
2022/04/04 02:18:03;;;;;;;6.72;3.35;;;;;;;2.36;100.00;100480.50;5019083;28;20512;-74
2022/04/04 02:20:29;;;;;;;7.80;3.33;;;;;;;2.33;100.00;100476.31;5028449;28;20053;-73
2022/04/04 02:22:55;;;;;;;11.05;3.75;;;;;;;2.26;100.00;100461.09;5009776;28;20292;-74
2022/04/04 02:25:20;;;;;;;5.95;3.00;;;;;;;2.20;100.00;100451.03;5027249;28;20013;-74
2022/04/04 02:27:46;;;;;;;7.55;2.90;;;;;;;2.17;100.00;100451.25;5027608;28;20176;-74
2022/04/04 02:30:12;;;;;;;10.27;3.63;;;;;;;2.26;100.00;100459.31;5018865;28;20122;-74
2022/04/04 02:32:37;;;;;;;7.40;3.15;;;;;;;2.11;100.00;100427.06;5002400;28;20490;-74
2022/04/04 02:35:04;;;;;;;5.68;3.47;;;;;;;2.09;100.00;100428.97;5002776;28;20022;-73
2022/04/04 02:37:29;;;;;;;;;;;;;;;2.08;100.00;100443.13;5028489;28;20047;-74
2022/04/04 02:39:56;;;;;;;8.10;3.50;;;;;;;2.14;100.00;100430.44;5027914;28;19991;-74
2022/04/04 02:42:21;;;;;;;9.32;3.85;;;;;;;2.11;100.00;100420.97;5028094;28;20044;-74
2022/04/04 02:44:47;;;;;;;9.40;4.07;;;;;;;2.09;100.00;100421.06;5027793;28;20033;-74
2022/04/04 02:47:12;;;;;;;10.15;3.45;;;;;;;2.07;100.00;100428.25;5028105;28;20030;-74
2022/04/04 02:49:38;;;;;;;6.03;2.80;;;;;;;2.06;100.00;100412.56;5018495;28;20445;-74
2022/04/04 02:52:03;;;;;;;5.25;3.00;;;;;;;2.06;100.00;100408.16;5026645;28;20030;-74
2022/04/04 02:54:29;;;;;;;8.88;3.92;;;;;;;2.11;100.00;100406.00;5027731;28;20025;-74
2022/04/04 02:56:54;;;;;;;8.60;3.43;;;;;;;2.05;100.00;100401.19;5026564;28;20033;-74
2022/04/04 02:59:19;;;;;;;7.87;3.23;;;;;;;2.01;100.00;100397.09;5026615;28;20060;-74
2022/04/04 03:01:48;;;;;;;4.30;2.57;;;;;;;1.95;100.00;100389.69;5028192;28;20084;-74
2022/04/04 03:04:18;;;;;;;7.78;3.83;;;;;;;2.01;100.00;100389.19;5027598;28;20612;-74
2022/04/04 03:06:43;;;;;;;4.85;2.75;;;;;;;2.04;100.00;100375.81;5027621;28;20402;-74
2022/04/04 03:09:09;;;;;;;8.00;3.67;;;;;;;2.00;100.00;100387.53;5017078;28;20025;-74
2022/04/04 03:11:34;;;;;;;8.10;3.43;;;;;;;2.02;100.00;100369.00;5019488;28;20439;-74
2022/04/04 03:14:00;;;;;;;5.70;3.37;;;;;;;2.07;100.00;100362.41;5027290;28;20351;-74
2022/04/04 03:16:25;;;;;;;10.82;3.90;;;;;;;2.08;100.00;100356.22;5009863;28;20649;-73
2022/04/04 03:18:53;;;;;;;6.07;3.30;;;;;;;2.06;100.00;100360.75;5027451;28;20029;-74
2022/04/04 03:21:20;;;;;;;8.02;3.53;;;;;;;2.09;100.00;100351.78;5009676;28;20116;-74
2022/04/04 03:23:46;;;;;;;7.97;3.50;;;;;;;2.06;100.00;100351.97;5027305;28;20068;-74
2022/04/04 03:26:11;;;;;;;11.45;3.80;;;;;;;2.08;100.00;100344.81;5017586;28;20056;-74
2022/04/04 03:28:37;;;;;;;4.97;3.13;;;;;;;2.05;100.00;100335.34;5019652;28;20487;-74
2022/04/04 03:31:04;;;;;;;6.25;3.22;;;;;;;2.05;100.00;100332.72;5027240;28;20037;-76
2022/04/04 03:33:30;;;;;;;8.88;3.40;;;;;;;2.01;100.00;100312.84;5026942;28;20037;-74
2022/04/04 03:35:55;;;;;;;;;;;;;;;2.09;100.00;100314.91;5018140;28;20033;-74
2022/04/04 03:38:21;;;;;;;9.15;3.42;;;;;;;2.05;100.00;100301.13;5026985;28;19939;-74
2022/04/04 03:40:46;;;;;;;11.67;4.13;;;;;;;2.02;100.00;100290.84;5025796;28;20053;-74
2022/04/04 03:43:13;;;;;;;13.10;3.77;;;;;;;2.04;100.00;100293.34;5017396;28;20388;-74
2022/04/04 03:45:39;;;;;;;7.60;3.38;;;;;;;2.01;100.00;100310.22;5025498;28;20025;-74
2022/04/04 03:48:04;;;;;;;5.68;3.05;;;;;;;2.06;100.00;100280.88;5025646;28;20021;-74
2022/04/04 03:50:30;;;;;;;6.70;3.22;;;;;;;2.05;100.00;100268.69;5009003;28;20451;-74
2022/04/04 03:52:56;;;;;;;8.60;3.40;;;;;;;2.04;100.00;100249.44;5017306;28;20029;-74
2022/04/04 03:55:23;;;;;;;;;;;;;;;2.03;100.00;100247.72;5017474;28;20371;-74
2022/04/04 03:57:49;;;;;;;6.47;3.00;;;;;;;2.04;100.00;100249.44;5026645;28;19913;-74
2022/04/04 04:00:15;;;;;;;7.90;3.25;;;;;;;2.08;100.00;100229.81;5026788;28;20163;-74
2022/04/04 04:02:41;;;;;;;8.32;3.30;;;;;;;2.07;100.00;100225.47;5025046;28;20037;-74
2022/04/04 04:05:07;;;;;;;7.80;2.60;;;;;;;2.09;100.00;100215.66;5008342;28;20025;-74
2022/04/04 04:07:33;;;;;;;7.13;3.30;;;;;;;2.13;100.00;100199.59;5025468;28;20072;-74
2022/04/04 04:09:58;;;;;;;10.88;4.38;;;;;;;2.14;100.00;100182.88;5025095;28;20073;-74
2022/04/04 04:12:24;;;;;;;3.85;2.65;;;;;;;2.11;100.00;100168.97;5008871;28;20021;-73
2022/04/04 04:14:52;;;;;;;4.30;2.63;;;;;;;2.13;100.00;100171.50;5008436;28;20053;-74
2022/04/04 04:17:19;;;;;;;9.60;3.95;;;;;;;2.18;100.00;100158.78;5026330;28;20315;-73
2022/04/04 04:22:30;;;;;;;4.90;2.90;;;;;;;2.25;100.00;100135.44;5026355;28;20120;-76
2022/04/04 04:24:56;;;;;;;3.38;2.25;;;;;;;2.26;100.00;100119.50;5007917;28;20179;-76
2022/04/04 04:27:22;;;;;;;6.18;3.33;;;;;;;2.28;100.00;100119.38;5024851;28;20033;-77
2022/04/04 04:29:47;;;;;;;5.30;2.75;;;;;;;2.32;100.00;100099.75;5016208;28;20068;-76
2022/04/04 04:32:13;;;;;;;5.33;3.30;;;;;;;2.37;100.00;100089.66;5008562;28;20025;-74
2022/04/04 04:34:39;;;;;;;4.90;2.72;;;;;;;2.35;100.00;100082.84;5024758;28;20029;-74
2022/04/04 04:37:05;;;;;;;5.72;2.33;;;;;;;2.42;100.00;100082.19;5016502;28;20039;-74
2022/04/04 04:39:31;;;;;;;5.43;2.78;;;;;;;2.42;100.00;100052.41;5024869;28;20033;-74
2022/04/04 04:41:56;;;;;;;4.97;2.60;;;;;;;2.42;100.00;100040.06;5024716;28;20589;-74
2022/04/04 04:44:22;;;;;;;5.43;3.13;;;;;;;2.46;100.00;100024.84;5008024;28;20035;-74
2022/04/04 04:46:48;;;;;;;4.03;1.98;;;;;;;2.47;100.00;100021.22;5025855;28;20046;-73
2022/04/04 04:49:14;;;;;;;4.50;2.60;;;;;;;2.42;100.00;100007.59;5007726;28;20421;-74
2022/04/04 04:51:41;;;;;;;3.95;2.58;;;;;;;2.44;100.00;100005.69;5025638;28;20061;-73
2022/04/04 04:54:08;;;;;;;7.43;2.90;;;;;;;2.40;100.00;99999.00;5016254;28;20071;-73
2022/04/04 04:56:35;;;;;;;7.18;3.00;;;;;;;2.42;100.00;99991.78;5024540;28;20874;-74
2022/04/04 04:59:01;;;;;;;7.15;2.88;;;;;;;2.44;99.92;99993.34;5025623;28;20021;-74
2022/04/04 05:01:26;;;;;;;4.60;3.25;;;;;;;2.43;99.64;99983.75;5024325;28;20037;-74
2022/04/04 05:03:52;;;;;;;4.90;2.90;;;;;;;2.42;99.80;99976.00;4991593;28;20083;-74
2022/04/04 05:06:17;;;;;;;5.63;3.43;;;;;;;2.43;100.00;99973.22;5025702;28;20033;-73
2022/04/04 05:08:43;;;;;;;9.80;3.37;;;;;;;2.43;99.26;99975.00;5007936;28;20044;-74
2022/04/04 05:11:08;;;;;;;4.93;3.17;;;;;;;2.35;99.73;99965.13;5025383;28;20634;-74
2022/04/04 05:13:34;;;;;;;8.50;3.77;;;;;;;2.41;100.00;99975.16;5025527;28;20080;-74
2022/04/04 05:15:59;;;;;;;8.47;3.80;;;;;;;2.37;99.56;99968.47;5025652;28;20103;-74
2022/04/04 05:18:25;;;;;;;6.63;3.80;;;;;;;2.47;99.75;99958.81;5012074;28;20279;-74
2022/04/04 05:20:50;;;;;;;8.70;3.35;;;;;;;2.38;99.77;99948.22;5029311;28;20359;-74
2022/04/04 05:23:16;;;;;;;6.25;3.75;;;;;;;2.40;100.00;99951.56;5011089;28;20490;-74
2022/04/04 05:25:42;;;;;;;12.75;5.25;;;;;;;2.42;100.00;99950.47;4999649;28;20029;-73
2022/04/04 05:28:08;;;;;;;6.30;4.05;;;;;;;2.47;100.00;99958.81;5028319;28;20510;-74
2022/04/04 05:30:34;;;;;;;6.07;3.72;;;;;;;2.44;100.00;99943.28;5028492;28;20038;-74
2022/04/04 05:33:01;;;;;;;12.57;4.63;;;;;;;2.48;100.00;99952.59;5027706;28;20202;-74
2022/04/04 05:35:27;;;;;;;9.77;4.75;;;;;;;2.51;100.00;99948.88;5015384;28;20033;-74
2022/04/04 05:37:55;;;;;;;11.77;5.30;;;;;;;2.54;100.00;99938.88;5028787;28;20478;-74
2022/04/04 05:40:22;;;;;;;9.40;5.10;;;;;;;2.59;100.00;99942.94;5006348;23;20067;-79
2022/04/04 05:42:49;;;;;;;9.85;5.55;;;;;;;2.64;100.00;99940.72;4981012;28;20475;-79
2022/04/04 05:45:14;;;;;;;;;;;;;;;2.67;100.00;99940.47;4995362;28;20037;-79
2022/04/04 05:47:40;;;;;;;10.05;5.97;;;;;;;2.69;100.00;99941.16;4994388;28;19936;-79
2022/04/04 05:50:07;;;;;;;;;;;;;;;2.66;100.00;99934.38;5011919;28;20022;-76
2022/04/04 05:52:35;;;;;;;11.70;5.70;;;;;;;2.64;100.00;99940.72;5011366;28;19952;-78
2022/04/04 05:55:01;;;;;;;15.73;6.53;;;;;;;2.62;100.00;99926.84;5012449;28;20033;-79
2022/04/04 05:57:29;;;;;;;9.77;5.88;;;;;;;2.61;100.00;99928.66;5010802;28;20068;-77
2022/04/04 05:59:55;;;;;;;15.75;6.97;;;;;;;2.69;100.00;99920.94;5003291;28;20022;-79
2022/04/04 06:02:22;;;;;;;12.60;6.78;;;;;;;2.64;100.00;99923.13;5011622;28;20068;-78
2022/04/04 06:04:48;;;;;;;16.35;7.03;;;;;;;2.66;100.00;99925.63;5011408;28;20066;-78
2022/04/04 06:07:14;;;;;;;11.48;7.50;;;;;;;2.61;100.00;99933.09;5012565;28;20477;-78
2022/04/04 06:09:40;;;;;;;14.23;7.10;;;;;;;2.67;100.00;99933.41;5012348;28;20038;-78
2022/04/04 06:12:06;;;;;;;14.52;7.40;;;;;;;2.61;100.00;99933.09;4991679;28;20113;-78
2022/04/04 06:14:31;;;;;;;14.05;7.43;;;;;;;2.59;100.00;99919.22;5011931;28;20121;-78
2022/04/04 06:16:56;;;;;;;14.10;8.63;;;;;;;2.53;100.00;99910.88;5013293;28;20499;-76
2022/04/04 06:19:22;;;;;;;15.80;8.83;;;;;;;2.45;100.00;99910.69;5014858;28;20538;-80
2022/04/04 06:21:47;;;;;;;15.97;8.73;;;;;;;2.42;100.00;99910.13;4999211;28;20113;-80
2022/04/04 06:24:13;;;;;;;18.17;10.05;;;;;;;2.37;100.00;99904.41;5015166;28;20030;-81
2022/04/04 06:26:39;;;;;;;18.53;9.67;;;;;;;2.37;100.00;99899.16;5014577;28;20044;-81
2022/04/04 06:29:09;;;;;;;20.85;10.35;;;;;;;2.29;100.00;99894.50;5010752;28;20037;-78
2022/04/04 06:31:36;;;;;;;23.27;10.90;;;;;;;2.16;100.00;99883.38;5009843;28;20030;-78
2022/04/04 06:34:04;;;;;;;19.45;11.02;;;;;;;2.16;100.00;99883.38;5008998;28;20502;-79
2022/04/04 06:36:30;;;;;;;20.20;11.30;;;;;;;2.16;100.00;99889.47;5009010;28;20037;-80
2022/04/04 06:38:56;;;;;;;20.02;12.10;;;;;;;2.04;100.00;99874.69;4977153;28;20896;-78
2022/04/04 06:41:21;;;;;;;23.85;11.93;;;;;;;2.08;100.00;99874.31;5008699;28;20037;-78
2022/04/04 06:43:47;;;;;;;22.53;13.53;;;;;;;2.04;100.00;99864.16;5008866;28;20033;-78
2022/04/04 06:46:13;;;;;;;20.57;12.97;;;;;;;2.03;100.00;99849.31;4976207;28;20030;-75
2022/04/04 06:48:39;;;;;;;26.45;12.75;;;;;;;2.05;100.00;99864.00;5007815;28;20172;-75
2022/04/04 06:51:05;;;;;;;24.38;14.52;;;;;;;2.05;100.00;99845.59;4999729;28;20033;-75
2022/04/04 06:53:31;;;;;;;24.40;12.90;;;;;;;2.03;100.00;99850.13;5009889;28;20017;-75
2022/04/04 06:55:57;;;;;;;24.25;14.20;;;;;;;1.98;100.00;99827.81;5008728;28;20095;-75
2022/04/04 06:58:22;;;;;;;25.50;15.05;;;;;;;2.00;100.00;99810.91;4992334;28;20116;-77
2022/04/04 07:00:48;;;;;;;26.67;15.50;;;;;;;1.92;100.00;99817.78;5009288;28;20300;-77
2022/04/04 07:03:13;;;;;;;24.55;14.20;;;;;;;1.91;100.00;99814.34;5007438;28;20475;-74
2022/04/04 07:05:40;;;;;;;30.73;16.08;;;;;;;1.80;100.00;99802.09;5008022;28;20069;-73
2022/04/04 07:08:06;;;;;;;26.25;15.68;;;;;;;1.86;100.00;99793.66;4998567;28;20065;-73
2022/04/04 07:10:32;;;;;;;30.25;16.27;;;;;;;1.83;100.00;99787.84;5007732;28;20068;-75
2022/04/04 07:12:58;;;;;;;32.83;16.45;;;;;;;1.90;100.00;99781.91;5007746;28;20414;-75
2022/04/04 07:15:24;;;;;;;29.88;16.27;;;;;;;1.90;100.00;99775.81;5006399;28;20152;-75
2022/04/04 07:17:49;;;;;;;28.47;17.83;;;;;;;1.83;100.00;99772.03;5006593;28;20582;-74
2022/04/04 07:20:15;;;;;;;26.90;15.67;;;;;;;1.82;100.00;99754.56;5010001;28;20306;-75
2022/04/04 07:22:42;;;;;;;31.07;16.80;;;;;;;1.79;100.00;99750.41;5007502;28;20284;-73
2022/04/04 07:25:09;;;;;;;29.85;16.90;;;;;;;1.75;100.00;99735.00;5009389;28;20053;-72
2022/04/04 07:27:36;;;;;;;29.17;15.40;;;;;;;1.75;100.00;99727.09;5007421;28;20029;-75
2022/04/04 07:30:03;;;;;;;31.40;16.52;;;;;;;1.82;100.00;99721.19;5005576;28;20084;-72
2022/04/04 07:32:28;;;;;;;27.73;17.02;;;;;;;1.79;100.00;99702.19;5005846;28;20036;-71
2022/04/04 07:34:54;;;;;;;27.10;16.40;;;;;;;1.79;100.00;99702.19;5006938;28;20467;-72
2022/04/04 07:37:19;;;;;;;28.00;16.13;;;;;;;1.85;100.00;99691.97;5011910;28;20326;-75
2022/04/04 07:39:44;;;;;;;28.17;16.07;;;;;;;1.86;100.00;99679.66;4972442;28;20041;-72
2022/04/04 07:42:11;;;;;;;28.97;17.13;;;;;;;1.87;100.00;99661.09;5006909;28;20029;-74
2022/04/04 07:44:38;;;;;;;30.80;16.90;;;;;;;1.89;100.00;99676.75;4973263;28;20030;-75
2022/04/04 07:47:04;;;;;;;26.83;15.18;;;;;;;1.85;100.00;99654.28;5005817;28;20025;-75
2022/04/04 07:49:29;;;;;;;31.20;18.10;;;;;;;1.92;100.00;99644.06;5005927;28;20029;-75
2022/04/04 07:51:54;;;;;;;25.97;16.00;;;;;;;1.95;100.00;99631.47;5005458;28;20095;-75
2022/04/04 07:54:20;;;;;;;28.23;17.20;;;;;;;2.02;100.00;99615.97;5006918;28;20365;-75
2022/04/04 07:56:45;;;;;;;24.97;15.27;;;;;;;2.00;100.00;99613.47;5007224;28;20038;-75
2022/04/04 07:59:11;;;;;;;27.67;15.52;;;;;;;2.04;100.00;99614.03;5006765;28;20036;-73
2022/04/04 08:01:37;;;;;;;24.73;14.93;;;;;;;2.14;100.00;99593.81;5006406;28;20379;-73
2022/04/04 08:04:02;;;;;;;22.75;14.68;;;;;;;2.13;100.00;99583.41;5005499;28;20121;-73
2022/04/04 08:06:27;;;;;;;25.50;15.63;;;;;;;2.22;100.00;99585.22;5006580;28;20030;-73
2022/04/04 08:08:53;;;;;;;26.70;14.77;;;;;;;2.29;100.00;99557.38;4997166;28;20030;-73
2022/04/04 08:11:18;;;;;;;22.70;14.50;;;;;;;2.36;100.00;99561.09;5006167;28;20406;-73
2022/04/04 08:13:45;;;;;;;24.47;14.03;;;;;;;2.38;100.00;99551.28;5005130;28;20076;-73
2022/04/04 08:16:11;;;;;;;27.55;15.52;;;;;;;2.38;100.00;99553.91;4995275;28;20044;-73
2022/04/04 08:18:36;;;;;;;26.33;15.57;;;;;;;2.44;100.00;99540.19;5006598;28;20029;-73
2022/04/04 08:21:02;;;;;;;25.05;14.10;;;;;;;2.39;100.00;99521.34;5004801;28;20030;-73
2022/04/04 08:23:29;;;;;;;21.63;14.07;;;;;;;2.33;100.00;99538.50;4996898;28;20368;-73
2022/04/04 08:25:59;;;;;;;22.02;14.50;;;;;;;2.39;100.00;99521.34;5004959;28;20510;-74
2022/04/04 08:28:25;;;;;;;23.65;13.93;;;;;;;2.47;100.00;99504.81;4997201;28;20034;-73
2022/04/04 08:30:51;;;;;;;;;;;;;;;2.50;100.00;99508.00;4995350;28;20022;-72
2022/04/04 08:33:17;;;;;;;24.75;15.02;;;;;;;2.39;100.00;99484.47;4992635;28;19917;-72
2022/04/04 08:35:43;;;;;;;24.95;15.27;;;;;;;2.45;100.00;99480.41;4988607;28;20553;-73
2022/04/04 08:38:08;;;;;;;21.80;13.15;;;;;;;2.48;100.00;99454.63;5006337;28;20037;-73
2022/04/04 08:40:35;;;;;;;21.33;14.30;;;;;;;2.45;100.00;99449.63;5004642;28;20030;-72
2022/04/04 08:43:02;;;;;;;25.85;15.05;;;;;;;2.56;100.00;99450.47;5005916;28;20034;-73
2022/04/04 08:45:28;;;;;;;20.17;13.57;;;;;;;2.49;100.00;99435.22;5004503;28;20024;-73
2022/04/04 08:47:54;;;;;;;;;;;;;;;2.44;100.00;99429.53;5006423;28;20041;-73
2022/04/04 08:50:20;;;;;;;20.70;13.68;;;;;;;2.43;100.00;99417.31;5005477;28;20437;-73
2022/04/04 08:52:46;;;;;;;20.20;12.63;;;;;;;2.50;100.00;99422.84;5004701;28;20144;-73
2022/04/04 08:55:15;;;;;;;19.52;12.73;;;;;;;2.41;100.00;99419.28;5004789;28;20681;-74
2022/04/04 08:57:41;;;;;;;22.08;13.70;;;;;;;2.54;100.00;99409.25;5003633;28;20037;-75
2022/04/04 09:00:10;;;;;;;21.40;13.98;;;;;;;2.42;100.00;99402.50;4996273;28;20615;-73
2022/04/04 09:02:36;;;;;;;24.83;13.85;;;;;;;2.40;100.00;99395.72;4996360;28;20030;-73
2022/04/04 09:05:04;;;;;;;22.40;13.75;;;;;;;2.45;100.00;99386.41;4996605;28;20021;-73
2022/04/04 09:07:30;;;;;;;24.45;14.40;;;;;;;2.41;100.00;99385.06;4996546;28;20030;-73
2022/04/04 09:09:55;;;;;;;23.60;13.45;;;;;;;2.49;100.00;99381.69;4993924;28;20424;-74
2022/04/04 09:12:22;;;;;;;22.63;14.07;;;;;;;2.39;100.00;99376.47;5004142;28;20053;-73
2022/04/04 09:14:56;;;;;;;22.58;15.18;;;;;;;2.37;100.00;99370.50;5005549;28;20034;-74
2022/04/04 09:17:28;;;;;;;19.65;13.20;;;;;;;2.39;100.00;99378.25;5005594;28;20030;-73
2022/04/04 09:19:54;;;;;;;23.15;13.55;;;;;;;2.34;100.00;99362.88;4997684;28;20046;-74
2022/04/04 09:22:20;;;;;;;22.90;14.02;;;;;;;2.38;100.00;99358.97;5003837;28;20022;-74
2022/04/04 09:24:55;;;;;;;23.88;14.13;;;;;;;2.41;100.00;99363.13;4986844;28;20497;-74
2022/04/04 09:27:25;;;;;;;22.73;14.95;;;;;;;2.41;100.00;99336.78;4995284;28;20117;-74
2022/04/04 09:29:54;;;;;;;22.95;15.38;;;;;;;2.34;100.00;99347.06;4993003;28;20042;-74
2022/04/04 09:32:20;;;;;;;21.30;14.68;;;;;;;2.39;100.00;99336.94;4995537;28;20024;-75
2022/04/04 09:34:53;;;;;;;21.23;14.27;;;;;;;2.47;100.00;99342.31;4987798;28;20430;-75
2022/04/04 09:37:21;;;;;;;22.95;15.45;;;;;;;2.51;100.00;99327.88;5004044;28;20061;-75
2022/04/04 09:40:00;;;;;;;24.02;14.93;;;;;;;2.43;100.00;99319.84;4987446;28;20037;-75
2022/04/04 09:42:28;;;;;;;21.23;15.20;;;;;;;2.40;100.00;99306.97;5003658;28;20037;-75
2022/04/04 09:45:01;;;;;;;25.65;16.38;;;;;;;2.46;100.00;99303.78;5004982;28;20022;-75
2022/04/04 09:47:51;;;;;;;22.65;15.25;;;;;;;2.56;100.00;99314.28;4987670;28;20422;-75
2022/04/04 09:50:29;;;;;;;23.77;15.52;;;;;;;2.56;100.00;99303.72;4998998;28;20049;-75
2022/04/04 09:52:57;;;;;;;25.73;16.00;;;;;;;2.44;100.00;99287.28;5005115;28;20061;-76
2022/04/04 09:55:29;;;;;;;21.48;15.48;;;;;;;2.63;100.00;99289.00;5005342;28;20018;-77
2022/04/04 09:58:00;;;;;;;19.48;14.43;;;;;;;2.51;100.00;99280.47;5005143;28;20483;-76
2022/04/04 10:00:27;;;;;;;22.80;14.95;;;;;;;2.43;100.00;99266.34;5004863;28;20487;-76
2022/04/04 10:02:56;;;;;;;;;;;;;;;2.47;100.00;99247.47;4990517;28;20029;-76
2022/04/04 10:05:26;;;;;;;19.08;13.23;;;;;;;2.40;100.00;99253.47;5006979;28;20317;-76
2022/04/04 10:07:55;;;;;;;20.27;14.18;;;;;;;2.38;100.00;99222.00;5009217;28;20507;-74
2022/04/04 10:10:24;;;;;;;21.58;15.48;;;;;;;2.43;100.00;99245.28;4999183;28;20017;-75
2022/04/04 10:12:51;;;;;;;23.73;15.38;;;;;;;2.50;100.00;99230.53;5007770;28;20036;-75
2022/04/04 10:15:18;;;;;;;25.02;15.52;;;;;;;2.45;100.00;99227.53;5007407;28;20022;-75
2022/04/04 10:17:44;;;;;;;;;;;;;;;2.49;100.00;99232.34;4990876;28;20033;-76
2022/04/04 10:20:11;;;;;;;21.90;14.13;;;;;;;2.39;100.00;99210.50;4999114;28;19909;-75
2022/04/04 10:22:37;;;;;;;18.00;12.98;;;;;;;2.42;100.00;99219.91;4999275;28;20056;-75
2022/04/04 10:25:04;;;;;;;21.83;14.95;;;;;;;2.47;100.00;99221.13;5006785;28;20022;-74
2022/04/04 10:27:30;;;;;;;20.48;14.05;;;;;;;2.42;100.00;99202.31;5008818;28;20655;-75
2022/04/04 10:30:06;;;;;;;20.33;13.73;;;;;;;2.35;100.00;99214.41;5008673;28;20044;-75
2022/04/04 10:32:33;;;;;;;20.52;13.88;;;;;;;2.32;100.00;99191.84;4999140;28;20082;-72
2022/04/04 10:35:07;;;;;;;;;;;;;;;2.42;100.00;99197.03;5008743;28;20029;-73
2022/04/04 10:37:42;;;;;;;20.35;13.38;;;;;;;2.36;100.00;99197.63;5008229;28;20390;-73
2022/04/04 10:40:28;;;;;;;19.33;13.00;;;;;;;2.50;100.00;99183.13;4998561;28;20072;-73
2022/04/04 10:43:10;;;;;;;21.83;14.10;;;;;;;2.58;100.00;99196.38;5005994;28;20726;-73
2022/04/04 10:46:00;;;;;;;21.13;14.00;;;;;;;2.56;100.00;99181.72;5006490;28;20128;-73
2022/04/04 10:48:36;;;;;;;21.27;14.18;;;;;;;2.62;100.00;99186.34;5007164;28;20123;-73
2022/04/04 10:51:20;;;;;;;21.58;14.02;;;;;;;2.49;100.00;99169.13;4999879;28;20057;-73
2022/04/04 10:53:57;;;;;;;26.25;14.25;;;;;;;2.58;100.00;99179.75;4997788;28;20041;-73
2022/04/04 10:56:29;;;;;;;20.42;13.02;;;;;;;2.61;100.00;99166.28;5007979;28;20069;-73
2022/04/04 10:59:20;;;;;;;17.15;11.63;;;;;;;2.55;100.00;99159.78;5007720;28;20069;-73
2022/04/04 11:01:58;;;;;;;15.18;10.88;;;;;;;2.59;100.00;99150.59;5003848;28;20045;-73
2022/04/04 11:04:36;;;;;;;19.98;12.55;;;;;;;2.66;100.00;99156.09;5007268;28;20073;-73
2022/04/04 11:10:06;;;;;;;16.83;11.43;;;;;;;2.62;100.00;99134.50;5006016;28;20042;-73
2022/04/04 11:12:55;;;;;;;16.13;11.07;;;;;;;2.59;100.00;99126.06;5005720;28;20042;-73
2022/04/04 11:15:43;;;;;;;15.52;11.18;;;;;;;2.63;100.00;99137.97;4996151;28;20061;-74
2022/04/04 11:18:14;;;;;;;14.18;9.77;;;;;;;2.65;100.00;99143.94;4985829;28;20148;-74
2022/04/04 11:21:05;;;;;;;15.98;10.95;;;;;;;2.70;100.00;99121.41;4994592;28;20341;-73
2022/04/04 11:23:34;;;;;;;15.77;10.75;;;;;;;2.75;100.00;99132.31;5002402;28;20640;-74
2022/04/04 11:26:01;;;;;;;15.38;10.57;;;;;;;2.72;100.00;99114.16;4989765;28;20458;-73
2022/04/04 11:28:31;;;;;;;16.60;10.52;;;;;;;2.71;100.00;99117.78;5007112;28;20041;-73
2022/04/04 11:31:07;;;;;;;15.63;10.50;;;;;;;2.78;100.00;99093.44;4995290;28;20026;-74